JAT573 LFPG-LYBE
Flight info
| Callsign | JAT573 |
|---|---|
| Flight time | 1h 46m |
| Altitude | 33000 |
| Route | LANVI DCT BEGAR DCT TRA DCT GAMSA DCT UMVEG DCT KFT DCT BEDOX DCT LAKIK DCT RIGMU |
| Aircraft | B722/M-SDFHIRWY/C |
Departure
| Time | 2026-05-08 17:57 |
|---|---|
| Airport | Charles de Gaulle International Airport (LFPG) |
Arrival
| Time | 2026-05-08 19:43 |
|---|---|
| Airport | Belgrade Nikola Tesla Airport (LYBE) |
| Time | Latitude | Longitude | Altitude | Speed | Heading |
|---|---|---|---|---|---|
| 2026-05-08 17:28 | 49.00707 | 2.56665 | 358 ft | 0 kts | 355° |
| 2026-05-08 17:44 | 49.00703 | 2.56665 | 358 ft | 1 kts | 355° |
| 2026-05-08 17:45 | 49.00693 | 2.56667 | 364 ft | 2 kts | 355° |
| 2026-05-08 17:45 | 49.00677 | 2.56669 | 357 ft | 2 kts | 355° |
| 2026-05-08 17:45 | 49.00662 | 2.56671 | 357 ft | 2 kts | 351° |
| 2026-05-08 17:45 | 49.00650 | 2.56681 | 366 ft | 2 kts | 310° |
| 2026-05-08 17:46 | 49.00644 | 2.56699 | 361 ft | 2 kts | 288° |
| 2026-05-08 17:46 | 49.00641 | 2.56719 | 362 ft | 2 kts | 275° |
| 2026-05-08 17:46 | 49.00642 | 2.56734 | 364 ft | 1 kts | 262° |
| 2026-05-08 17:46 | 49.00643 | 2.56748 | 361 ft | 1 kts | 265° |
| 2026-05-08 17:47 | 49.00643 | 2.56752 | 361 ft | 0 kts | 265° |
| 2026-05-08 17:50 | 49.00643 | 2.56746 | 361 ft | 2 kts | 266° |
| 2026-05-08 17:50 | 49.00641 | 2.56692 | 366 ft | 8 kts | 266° |
| 2026-05-08 17:50 | 49.00634 | 2.56573 | 360 ft | 14 kts | 265° |
| 2026-05-08 17:51 | 49.00626 | 2.56403 | 359 ft | 17 kts | 266° |
| 2026-05-08 17:51 | 49.00615 | 2.56211 | 357 ft | 19 kts | 265° |
| 2026-05-08 17:51 | 49.00594 | 2.56037 | 357 ft | 15 kts | 249° |
| 2026-05-08 17:51 | 49.00570 | 2.55868 | 357 ft | 17 kts | 265° |
| 2026-05-08 17:52 | 49.00559 | 2.55674 | 359 ft | 18 kts | 265° |
| 2026-05-08 17:52 | 49.00550 | 2.55482 | 361 ft | 18 kts | 266° |
| 2026-05-08 17:52 | 49.00394 | 2.55352 | 359 ft | 16 kts | 164° |
| 2026-05-08 17:53 | 49.00277 | 2.55403 | 358 ft | 18 kts | 164° |
| 2026-05-08 17:53 | 49.00155 | 2.55457 | 360 ft | 18 kts | 163° |
| 2026-05-08 17:53 | 49.00046 | 2.55504 | 363 ft | 12 kts | 167° |
| 2026-05-08 17:53 | 48.99985 | 2.55437 | 364 ft | 13 kts | 260° |
| 2026-05-08 17:54 | 48.99977 | 2.55288 | 357 ft | 14 kts | 265° |
| 2026-05-08 17:54 | 48.99942 | 2.55195 | 363 ft | 10 kts | 191° |
| 2026-05-08 17:54 | 48.99871 | 2.55214 | 362 ft | 12 kts | 163° |
| 2026-05-08 17:54 | 48.99791 | 2.55256 | 365 ft | 12 kts | 161° |
| 2026-05-08 17:55 | 48.99721 | 2.55328 | 357 ft | 13 kts | 124° |
| 2026-05-08 17:55 | 48.99671 | 2.55444 | 363 ft | 14 kts | 131° |
| 2026-05-08 17:55 | 48.99608 | 2.55526 | 360 ft | 10 kts | 152° |
| 2026-05-08 17:55 | 48.99588 | 2.55558 | 361 ft | 3 kts | 96° |
| 2026-05-08 17:56 | 48.99588 | 2.55579 | 358 ft | 0 kts | 88° |
| 2026-05-08 17:56 | 48.99590 | 2.55642 | 359 ft | 25 kts | 86° |
| 2026-05-08 17:56 | 48.99621 | 2.56221 | 360 ft | 84 kts | 85° |
| 2026-05-08 17:57 | 48.99683 | 2.57372 | 354 ft | 134 kts | 85° |
| 2026-05-08 17:57 | 48.99780 | 2.58952 | 534 ft | 158 kts | 84° |
| 2026-05-08 17:57 | 48.99866 | 2.60658 | 1083 ft | 162 kts | 85° |
| 2026-05-08 17:57 | 48.99947 | 2.62341 | 1810 ft | 158 kts | 84° |
| 2026-05-08 17:58 | 49.00003 | 2.63962 | 2503 ft | 151 kts | 85° |
| 2026-05-08 17:58 | 49.00058 | 2.65638 | 2823 ft | 168 kts | 86° |
| 2026-05-08 17:58 | 49.00110 | 2.67505 | 3107 ft | 184 kts | 87° |
| 2026-05-08 17:58 | 49.00171 | 2.69529 | 3384 ft | 200 kts | 86° |
| 2026-05-08 17:59 | 49.00244 | 2.71728 | 3690 ft | 216 kts | 86° |
| 2026-05-08 17:59 | 49.00362 | 2.74102 | 4231 ft | 234 kts | 86° |
| 2026-05-08 17:59 | 49.00416 | 2.76657 | 4796 ft | 255 kts | 93° |
| 2026-05-08 17:59 | 49.00220 | 2.79396 | 5631 ft | 263 kts | 97° |
| 2026-05-08 18:00 | 49.00001 | 2.82176 | 6581 ft | 267 kts | 99° |
| 2026-05-08 18:00 | 48.99404 | 2.87924 | 8247 ft | 281 kts | 100° |
| 2026-05-08 18:00 | 48.99101 | 2.90905 | 9097 ft | 287 kts | 100° |
| 2026-05-08 18:01 | 48.98803 | 2.93946 | 9908 ft | 294 kts | 100° |
| 2026-05-08 18:01 | 48.98537 | 2.97086 | 10505 ft | 307 kts | 99° |
| 2026-05-08 18:01 | 48.98258 | 3.00398 | 10939 ft | 324 kts | 99° |
| 2026-05-08 18:01 | 48.97958 | 3.03881 | 11427 ft | 339 kts | 99° |
| 2026-05-08 18:02 | 48.97650 | 3.07517 | 11943 ft | 354 kts | 98° |
| 2026-05-08 18:02 | 48.97452 | 3.10016 | 12283 ft | 364 kts | 98° |
| 2026-05-08 18:02 | 48.97017 | 3.15179 | 13423 ft | 369 kts | 98° |
| 2026-05-08 18:02 | 48.96693 | 3.19097 | 14187 ft | 375 kts | 98° |
| 2026-05-08 18:03 | 48.96476 | 3.21721 | 14678 ft | 378 kts | 98° |
| 2026-05-08 18:03 | 48.96134 | 3.25704 | 15422 ft | 382 kts | 98° |
| 2026-05-08 18:03 | 48.95667 | 3.31053 | 16365 ft | 388 kts | 98° |
| 2026-05-08 18:03 | 48.95310 | 3.35147 | 17098 ft | 391 kts | 98° |
| 2026-05-08 18:04 | 48.95066 | 3.37931 | 17567 ft | 394 kts | 98° |
| 2026-05-08 18:04 | 48.94708 | 3.42039 | 18242 ft | 399 kts | 97° |
| 2026-05-08 18:04 | 48.94358 | 3.46260 | 18813 ft | 403 kts | 98° |
| 2026-05-08 18:04 | 48.93980 | 3.50516 | 19335 ft | 408 kts | 97° |
| 2026-05-08 18:05 | 48.93636 | 3.54826 | 19885 ft | 412 kts | 95° |
| 2026-05-08 18:05 | 48.93353 | 3.59175 | 20560 ft | 413 kts | 94° |
| 2026-05-08 18:05 | 48.93122 | 3.63538 | 21275 ft | 412 kts | 93° |
| 2026-05-08 18:05 | 48.92904 | 3.67892 | 21911 ft | 415 kts | 93° |
| 2026-05-08 18:06 | 48.92683 | 3.72293 | 22428 ft | 419 kts | 92° |
| 2026-05-08 18:06 | 48.92459 | 3.76676 | 22944 ft | 423 kts | 92° |
| 2026-05-08 18:06 | 48.92224 | 3.81169 | 23479 ft | 427 kts | 92° |
| 2026-05-08 18:06 | 48.91985 | 3.85694 | 23930 ft | 430 kts | 93° |
| 2026-05-08 18:07 | 48.91740 | 3.90247 | 24353 ft | 433 kts | 92° |
| 2026-05-08 18:07 | 48.91486 | 3.94830 | 24762 ft | 437 kts | 93° |
| 2026-05-08 18:07 | 48.91230 | 3.99461 | 25166 ft | 440 kts | 92° |
| 2026-05-08 18:07 | 48.90966 | 4.04116 | 25565 ft | 444 kts | 93° |
| 2026-05-08 18:08 | 48.90698 | 4.08824 | 25986 ft | 448 kts | 93° |
| 2026-05-08 18:08 | 48.90427 | 4.13514 | 26392 ft | 452 kts | 93° |
| 2026-05-08 18:08 | 48.90149 | 4.18302 | 26777 ft | 456 kts | 93° |
| 2026-05-08 18:08 | 48.89765 | 4.23119 | 27133 ft | 462 kts | 100° |
| 2026-05-08 18:09 | 48.88765 | 4.27778 | 27497 ft | 467 kts | 112° |
| 2026-05-08 18:09 | 48.87300 | 4.32230 | 27826 ft | 472 kts | 121° |
| 2026-05-08 18:09 | 48.85450 | 4.36296 | 28116 ft | 476 kts | 124° |
| 2026-05-08 18:09 | 48.83664 | 4.40568 | 28448 ft | 481 kts | 121° |
| 2026-05-08 18:10 | 48.81911 | 4.44926 | 28785 ft | 484 kts | 121° |
| 2026-05-08 18:10 | 48.80191 | 4.49350 | 29100 ft | 488 kts | 120° |
| 2026-05-08 18:10 | 48.78542 | 4.53887 | 29407 ft | 492 kts | 117° |
| 2026-05-08 18:10 | 48.76867 | 4.58427 | 29705 ft | 496 kts | 121° |
| 2026-05-08 18:11 | 48.75099 | 4.62949 | 29981 ft | 500 kts | 118° |
| 2026-05-08 18:11 | 48.73500 | 4.67580 | 30232 ft | 503 kts | 117° |
| 2026-05-08 18:11 | 48.71755 | 4.72192 | 30546 ft | 504 kts | 122° |
| 2026-05-08 18:11 | 48.69969 | 4.76774 | 30834 ft | 506 kts | 118° |
| 2026-05-08 18:12 | 48.68337 | 4.81514 | 31095 ft | 508 kts | 118° |
| 2026-05-08 18:12 | 48.66628 | 4.86209 | 31373 ft | 510 kts | 119° |
| 2026-05-08 18:12 | 48.64892 | 4.90915 | 31652 ft | 512 kts | 119° |
| 2026-05-08 18:12 | 48.63153 | 4.95629 | 31931 ft | 514 kts | 120° |
| 2026-05-08 18:13 | 48.61400 | 5.00279 | 32190 ft | 516 kts | 120° |
| 2026-05-08 18:13 | 48.59608 | 5.04990 | 32444 ft | 518 kts | 120° |
| 2026-05-08 18:13 | 48.57807 | 5.09722 | 32672 ft | 520 kts | 120° |
| 2026-05-08 18:13 | 48.55998 | 5.14474 | 32874 ft | 523 kts | 120° |
| 2026-05-08 18:14 | 48.54183 | 5.19236 | 33010 ft | 522 kts | 121° |
| 2026-05-08 18:14 | 48.52372 | 5.23989 | 33015 ft | 522 kts | 121° |
| 2026-05-08 18:14 | 48.48751 | 5.33484 | 33017 ft | 521 kts | 121° |
| 2026-05-08 18:15 | 48.45163 | 5.42883 | 33015 ft | 519 kts | 121° |
| 2026-05-08 18:15 | 48.41559 | 5.52320 | 33014 ft | 518 kts | 121° |
| 2026-05-08 18:16 | 48.37957 | 5.61717 | 33020 ft | 517 kts | 121° |
| 2026-05-08 18:16 | 48.34355 | 5.71071 | 33027 ft | 516 kts | 121° |
| 2026-05-08 18:17 | 48.30844 | 5.80412 | 33029 ft | 516 kts | 117° |
| 2026-05-08 18:17 | 48.28357 | 5.90521 | 33043 ft | 515 kts | 104° |
| 2026-05-08 18:18 | 48.26350 | 6.00849 | 33050 ft | 515 kts | 108° |
| 2026-05-08 18:18 | 48.24107 | 6.10988 | 33051 ft | 514 kts | 106° |
| 2026-05-08 18:19 | 48.21885 | 6.21176 | 33045 ft | 513 kts | 110° |
| 2026-05-08 18:19 | 48.19676 | 6.31375 | 33036 ft | 514 kts | 107° |
| 2026-05-08 18:20 | 48.17364 | 6.41497 | 33029 ft | 513 kts | 109° |
| 2026-05-08 18:20 | 48.15193 | 6.51614 | 33021 ft | 514 kts | 107° |
| 2026-05-08 18:21 | 48.12853 | 6.61727 | 33026 ft | 514 kts | 110° |
| 2026-05-08 18:21 | 48.10574 | 6.71871 | 33028 ft | 514 kts | 109° |
| 2026-05-08 18:22 | 48.08297 | 6.82024 | 33028 ft | 515 kts | 109° |
| 2026-05-08 18:22 | 48.05992 | 6.92166 | 33028 ft | 515 kts | 109° |
| 2026-05-08 18:23 | 48.03676 | 7.02316 | 33029 ft | 515 kts | 110° |
| 2026-05-08 18:23 | 48.01358 | 7.12451 | 33029 ft | 515 kts | 110° |
| 2026-05-08 18:24 | 47.99041 | 7.22579 | 33023 ft | 515 kts | 110° |
| 2026-05-08 18:24 | 47.96743 | 7.32613 | 33021 ft | 513 kts | 110° |
| 2026-05-08 18:25 | 47.94392 | 7.42633 | 33013 ft | 511 kts | 110° |
| 2026-05-08 18:25 | 47.92037 | 7.52629 | 33005 ft | 509 kts | 110° |
| 2026-05-08 18:26 | 47.89753 | 7.62363 | 32999 ft | 508 kts | 108° |
| 2026-05-08 18:26 | 47.87504 | 7.71599 | 33005 ft | 506 kts | 114° |
| 2026-05-08 18:27 | 47.85354 | 7.79744 | 33009 ft | 509 kts | 112° |
| 2026-05-08 18:27 | 47.82444 | 7.91299 | 33017 ft | 511 kts | 112° |
| 2026-05-08 18:28 | 47.79946 | 8.01207 | 33022 ft | 512 kts | 112° |
| 2026-05-08 18:28 | 47.77440 | 8.11080 | 33022 ft | 513 kts | 112° |
| 2026-05-08 18:29 | 47.74896 | 8.20995 | 33024 ft | 513 kts | 112° |
| 2026-05-08 18:29 | 47.72348 | 8.30914 | 33022 ft | 513 kts | 112° |
| 2026-05-08 18:30 | 47.69779 | 8.40727 | 33022 ft | 512 kts | 112° |
| 2026-05-08 18:30 | 47.67381 | 8.50690 | 33020 ft | 512 kts | 109° |
| 2026-05-08 18:31 | 47.65121 | 8.60726 | 33015 ft | 512 kts | 109° |
| 2026-05-08 18:31 | 47.62863 | 8.70754 | 33014 ft | 512 kts | 109° |
| 2026-05-08 18:32 | 47.60623 | 8.80689 | 33013 ft | 511 kts | 109° |
| 2026-05-08 18:32 | 47.58342 | 8.90656 | 33007 ft | 510 kts | 110° |
| 2026-05-08 18:33 | 47.56064 | 9.00592 | 33004 ft | 509 kts | 110° |
| 2026-05-08 18:33 | 47.53780 | 9.10500 | 32995 ft | 507 kts | 110° |
| 2026-05-08 18:34 | 47.51508 | 9.20317 | 33014 ft | 506 kts | 110° |
| 2026-05-08 18:34 | 47.49216 | 9.30158 | 33014 ft | 505 kts | 110° |
| 2026-05-08 18:35 | 47.46921 | 9.39992 | 33015 ft | 505 kts | 110° |
| 2026-05-08 18:35 | 47.44633 | 9.49799 | 33020 ft | 504 kts | 110° |
| 2026-05-08 18:36 | 47.42344 | 9.59602 | 33021 ft | 504 kts | 110° |
| 2026-05-08 18:36 | 47.40326 | 9.69515 | 33007 ft | 504 kts | 102° |
| 2026-05-08 18:37 | 47.39555 | 9.79714 | 33023 ft | 503 kts | 94° |
| 2026-05-08 18:37 | 47.38858 | 9.90016 | 33017 ft | 502 kts | 98° |
| 2026-05-08 18:38 | 47.38091 | 10.00263 | 33035 ft | 502 kts | 96° |
| 2026-05-08 18:38 | 47.37192 | 10.10464 | 33035 ft | 501 kts | 97° |
| 2026-05-08 18:39 | 47.36452 | 10.20604 | 33032 ft | 500 kts | 99° |
| 2026-05-08 18:39 | 47.35577 | 10.30784 | 33037 ft | 500 kts | 97° |
| 2026-05-08 18:40 | 47.34980 | 10.38301 | 33035 ft | 499 kts | 97° |
| 2026-05-08 18:40 | 47.34147 | 10.48450 | 33032 ft | 499 kts | 97° |
| 2026-05-08 18:41 | 47.33299 | 10.58589 | 33034 ft | 497 kts | 98° |
| 2026-05-08 18:41 | 47.32411 | 10.68651 | 33026 ft | 497 kts | 98° |
| 2026-05-08 18:42 | 47.31530 | 10.78747 | 33023 ft | 496 kts | 98° |
| 2026-05-08 18:42 | 47.30670 | 10.88824 | 33013 ft | 495 kts | 98° |
| 2026-05-08 18:43 | 47.29816 | 10.98897 | 33017 ft | 495 kts | 98° |
| 2026-05-08 18:43 | 47.28937 | 11.08956 | 33009 ft | 495 kts | 98° |
| 2026-05-08 18:44 | 47.28058 | 11.19020 | 33008 ft | 494 kts | 99° |
| 2026-05-08 18:44 | 47.27153 | 11.29040 | 33009 ft | 494 kts | 99° |
| 2026-05-08 18:45 | 47.26222 | 11.39062 | 33016 ft | 494 kts | 100° |
| 2026-05-08 18:45 | 47.25288 | 11.49023 | 33008 ft | 493 kts | 100° |
| 2026-05-08 18:46 | 47.24352 | 11.59027 | 33008 ft | 493 kts | 100° |
| 2026-05-08 18:46 | 47.23416 | 11.69049 | 33017 ft | 494 kts | 100° |
| 2026-05-08 18:47 | 47.22481 | 11.79061 | 33019 ft | 494 kts | 100° |
| 2026-05-08 18:47 | 47.21542 | 11.89080 | 33024 ft | 493 kts | 101° |
| 2026-05-08 18:48 | 47.19935 | 11.98773 | 33029 ft | 489 kts | 110° |
| 2026-05-08 18:48 | 47.17891 | 12.08328 | 33038 ft | 489 kts | 110° |
| 2026-05-08 18:49 | 47.15882 | 12.17881 | 33040 ft | 489 kts | 110° |
| 2026-05-08 18:49 | 47.13869 | 12.27429 | 33047 ft | 489 kts | 110° |
| 2026-05-08 18:50 | 47.11873 | 12.36883 | 33048 ft | 487 kts | 110° |
| 2026-05-08 18:50 | 47.10205 | 12.44776 | 33058 ft | 485 kts | 110° |
| 2026-05-08 18:51 | 47.07871 | 12.55815 | 33062 ft | 483 kts | 110° |
| 2026-05-08 18:51 | 47.06202 | 12.63616 | 33067 ft | 481 kts | 111° |
| 2026-05-08 18:52 | 47.04195 | 12.72981 | 33062 ft | 481 kts | 110° |
| 2026-05-08 18:52 | 47.02174 | 12.82296 | 33069 ft | 479 kts | 111° |
| 2026-05-08 18:53 | 47.00179 | 12.91552 | 33077 ft | 477 kts | 111° |
| 2026-05-08 18:53 | 46.98159 | 13.00796 | 33067 ft | 476 kts | 111° |
| 2026-05-08 18:54 | 46.96137 | 13.10047 | 33067 ft | 477 kts | 111° |
| 2026-05-08 18:54 | 46.94111 | 13.19299 | 33067 ft | 478 kts | 111° |
| 2026-05-08 18:55 | 46.90981 | 13.33154 | 33064 ft | 479 kts | 112° |
| 2026-05-08 18:56 | 46.88891 | 13.42396 | 33072 ft | 478 kts | 112° |
| 2026-05-08 18:56 | 46.86810 | 13.51568 | 33055 ft | 478 kts | 112° |
| 2026-05-08 18:57 | 46.84719 | 13.60791 | 33056 ft | 478 kts | 112° |
| 2026-05-08 18:57 | 46.82624 | 13.70016 | 33055 ft | 478 kts | 112° |
| 2026-05-08 18:58 | 46.80527 | 13.79232 | 33043 ft | 478 kts | 112° |
| 2026-05-08 18:58 | 46.78429 | 13.88441 | 33046 ft | 478 kts | 112° |
| 2026-05-08 18:59 | 46.76325 | 13.97649 | 33038 ft | 478 kts | 112° |
| 2026-05-08 18:59 | 46.74199 | 14.06764 | 33034 ft | 478 kts | 113° |
| 2026-05-08 19:00 | 46.72048 | 14.15951 | 33041 ft | 477 kts | 113° |
| 2026-05-08 19:00 | 46.69897 | 14.25089 | 33037 ft | 477 kts | 113° |
| 2026-05-08 19:01 | 46.67735 | 14.34250 | 33037 ft | 477 kts | 113° |
| 2026-05-08 19:01 | 46.65561 | 14.43375 | 33028 ft | 477 kts | 113° |
| 2026-05-08 19:02 | 46.63386 | 14.52492 | 33038 ft | 477 kts | 114° |
| 2026-05-08 19:02 | 46.61278 | 14.61575 | 33053 ft | 477 kts | 112° |
| 2026-05-08 19:03 | 46.58840 | 14.70516 | 33051 ft | 474 kts | 117° |
| 2026-05-08 19:03 | 46.56306 | 14.79373 | 33051 ft | 474 kts | 117° |
| 2026-05-08 19:04 | 46.53776 | 14.88231 | 33047 ft | 474 kts | 116° |
| 2026-05-08 19:04 | 46.51334 | 14.97131 | 33045 ft | 475 kts | 116° |
| 2026-05-08 19:05 | 46.48895 | 15.05986 | 33042 ft | 474 kts | 116° |
| 2026-05-08 19:05 | 46.46432 | 15.14869 | 33041 ft | 474 kts | 116° |
| 2026-05-08 19:06 | 46.43964 | 15.23754 | 33040 ft | 475 kts | 116° |
| 2026-05-08 19:06 | 46.41493 | 15.32639 | 33042 ft | 475 kts | 116° |
| 2026-05-08 19:07 | 46.39018 | 15.41532 | 33055 ft | 476 kts | 116° |
| 2026-05-08 19:07 | 46.36541 | 15.50417 | 33054 ft | 476 kts | 115° |
| 2026-05-08 19:08 | 46.34036 | 15.59201 | 33057 ft | 474 kts | 116° |
| 2026-05-08 19:08 | 46.31508 | 15.68005 | 33062 ft | 473 kts | 116° |
| 2026-05-08 19:09 | 46.28985 | 15.76796 | 33055 ft | 472 kts | 116° |
| 2026-05-08 19:09 | 46.26466 | 15.85560 | 33052 ft | 471 kts | 116° |
| 2026-05-08 19:10 | 46.23967 | 15.94316 | 33040 ft | 471 kts | 115° |
| 2026-05-08 19:10 | 46.21494 | 16.03077 | 33034 ft | 471 kts | 115° |
| 2026-05-08 19:11 | 46.19014 | 16.11823 | 33035 ft | 470 kts | 115° |
| 2026-05-08 19:11 | 46.16534 | 16.20566 | 33041 ft | 471 kts | 115° |
| 2026-05-08 19:12 | 46.14065 | 16.29265 | 33030 ft | 471 kts | 115° |
| 2026-05-08 19:12 | 46.11580 | 16.38008 | 33029 ft | 471 kts | 115° |
| 2026-05-08 19:13 | 46.09090 | 16.46727 | 33020 ft | 470 kts | 116° |
| 2026-05-08 19:13 | 46.06564 | 16.55426 | 33026 ft | 471 kts | 116° |
| 2026-05-08 19:14 | 46.04027 | 16.64151 | 33029 ft | 473 kts | 116° |
| 2026-05-08 19:14 | 46.01469 | 16.72890 | 33034 ft | 474 kts | 116° |
| 2026-05-08 19:15 | 45.98872 | 16.81640 | 33033 ft | 476 kts | 116° |
| 2026-05-08 19:15 | 45.96266 | 16.90404 | 33032 ft | 477 kts | 116° |
| 2026-05-08 19:16 | 45.93676 | 16.99148 | 33028 ft | 478 kts | 116° |
| 2026-05-08 19:16 | 45.91069 | 17.07956 | 33028 ft | 479 kts | 116° |
| 2026-05-08 19:17 | 45.88456 | 17.16767 | 33022 ft | 479 kts | 116° |
| 2026-05-08 19:17 | 45.85839 | 17.25580 | 33026 ft | 480 kts | 116° |
| 2026-05-08 19:18 | 45.83243 | 17.34316 | 33023 ft | 479 kts | 116° |
| 2026-05-08 19:18 | 45.80609 | 17.43075 | 33025 ft | 478 kts | 116° |
| 2026-05-08 19:19 | 45.77973 | 17.51806 | 33022 ft | 477 kts | 117° |
| 2026-05-08 19:19 | 45.75317 | 17.60544 | 33025 ft | 477 kts | 117° |
| 2026-05-08 19:20 | 45.72669 | 17.69255 | 33018 ft | 477 kts | 117° |
| 2026-05-08 19:20 | 45.70017 | 17.77964 | 33023 ft | 477 kts | 117° |
| 2026-05-08 19:21 | 45.67388 | 17.86592 | 33020 ft | 476 kts | 117° |
| 2026-05-08 19:21 | 45.64734 | 17.95299 | 33016 ft | 476 kts | 117° |
| 2026-05-08 19:22 | 45.62087 | 18.03974 | 33019 ft | 476 kts | 117° |
| 2026-05-08 19:22 | 45.59515 | 18.12702 | 32814 ft | 479 kts | 112° |
| 2026-05-08 19:22 | 45.58572 | 18.17270 | 32390 ft | 480 kts | 106° |
| 2026-05-08 19:23 | 45.57889 | 18.21914 | 31802 ft | 476 kts | 103° |
| 2026-05-08 19:23 | 45.57336 | 18.26557 | 31224 ft | 473 kts | 101° |
| 2026-05-08 19:23 | 45.56899 | 18.31201 | 30655 ft | 468 kts | 102° |
| 2026-05-08 19:23 | 45.56226 | 18.35651 | 30100 ft | 462 kts | 105° |
| 2026-05-08 19:24 | 45.55514 | 18.40099 | 29464 ft | 458 kts | 104° |
| 2026-05-08 19:24 | 45.54842 | 18.44517 | 28825 ft | 454 kts | 104° |
| 2026-05-08 19:24 | 45.54174 | 18.48905 | 28207 ft | 452 kts | 104° |
| 2026-05-08 19:24 | 45.53510 | 18.53270 | 27599 ft | 450 kts | 104° |
| 2026-05-08 19:25 | 45.52848 | 18.57621 | 27010 ft | 447 kts | 104° |
| 2026-05-08 19:25 | 45.52190 | 18.61948 | 26428 ft | 444 kts | 104° |
| 2026-05-08 19:25 | 45.51552 | 18.66251 | 25853 ft | 440 kts | 103° |
| 2026-05-08 19:25 | 45.50921 | 18.70497 | 25312 ft | 436 kts | 103° |
| 2026-05-08 19:26 | 45.50293 | 18.74706 | 24793 ft | 431 kts | 103° |
| 2026-05-08 19:26 | 45.49678 | 18.78868 | 24277 ft | 427 kts | 103° |
| 2026-05-08 19:26 | 45.49055 | 18.82990 | 23769 ft | 423 kts | 103° |
| 2026-05-08 19:26 | 45.48446 | 18.87025 | 23206 ft | 419 kts | 103° |
| 2026-05-08 19:27 | 45.47836 | 18.91069 | 22616 ft | 416 kts | 103° |
| 2026-05-08 19:27 | 45.47229 | 18.95094 | 22037 ft | 412 kts | 103° |
| 2026-05-08 19:27 | 45.46630 | 18.99062 | 21470 ft | 408 kts | 103° |
| 2026-05-08 19:27 | 45.46036 | 19.03005 | 20913 ft | 404 kts | 103° |
| 2026-05-08 19:28 | 45.45444 | 19.06903 | 20368 ft | 401 kts | 103° |
| 2026-05-08 19:28 | 45.44848 | 19.10761 | 19832 ft | 396 kts | 103° |
| 2026-05-08 19:28 | 45.44261 | 19.14566 | 19322 ft | 392 kts | 103° |
| 2026-05-08 19:28 | 45.43680 | 19.18332 | 18858 ft | 386 kts | 103° |
| 2026-05-08 19:29 | 45.43107 | 19.22044 | 18385 ft | 382 kts | 103° |
| 2026-05-08 19:29 | 45.42541 | 19.25717 | 17857 ft | 377 kts | 103° |
| 2026-05-08 19:29 | 45.41987 | 19.29311 | 17334 ft | 373 kts | 103° |
| 2026-05-08 19:29 | 45.41335 | 19.32854 | 16805 ft | 364 kts | 111° |
| 2026-05-08 19:30 | 45.40226 | 19.36043 | 16298 ft | 356 kts | 122° |
| 2026-05-08 19:30 | 45.38885 | 19.38965 | 15919 ft | 348 kts | 123° |
| 2026-05-08 19:30 | 45.37572 | 19.41831 | 15540 ft | 343 kts | 123° |
| 2026-05-08 19:30 | 45.36244 | 19.44727 | 15167 ft | 357 kts | 123° |
| 2026-05-08 19:31 | 45.34829 | 19.47646 | 14816 ft | 368 kts | 130° |
| 2026-05-08 19:31 | 45.32837 | 19.49928 | 14467 ft | 365 kts | 152° |
| 2026-05-08 19:31 | 45.30531 | 19.51211 | 14126 ft | 348 kts | 163° |
| 2026-05-08 19:31 | 45.28235 | 19.52037 | 13762 ft | 334 kts | 166° |
| 2026-05-08 19:32 | 45.26006 | 19.52769 | 13353 ft | 323 kts | 166° |
| 2026-05-08 19:32 | 45.23830 | 19.53483 | 12946 ft | 318 kts | 166° |
| 2026-05-08 19:32 | 45.21685 | 19.54187 | 12541 ft | 315 kts | 167° |
| 2026-05-08 19:32 | 45.19554 | 19.54885 | 12154 ft | 312 kts | 167° |
| 2026-05-08 19:33 | 45.17454 | 19.55576 | 11768 ft | 307 kts | 166° |
| 2026-05-08 19:33 | 45.15512 | 19.56696 | 11367 ft | 300 kts | 144° |
| 2026-05-08 19:33 | 45.13978 | 19.58648 | 11001 ft | 293 kts | 134° |
| 2026-05-08 19:33 | 45.12604 | 19.60745 | 10629 ft | 288 kts | 132° |
| 2026-05-08 19:34 | 45.11346 | 19.62935 | 10264 ft | 285 kts | 128° |
| 2026-05-08 19:34 | 45.10196 | 19.65165 | 9894 ft | 282 kts | 126° |
| 2026-05-08 19:34 | 45.09102 | 19.67455 | 9472 ft | 280 kts | 123° |
| 2026-05-08 19:34 | 45.08058 | 19.69766 | 9050 ft | 278 kts | 122° |
| 2026-05-08 19:35 | 45.07045 | 19.72082 | 8641 ft | 275 kts | 122° |
| 2026-05-08 19:35 | 45.06052 | 19.74392 | 8218 ft | 274 kts | 121° |
| 2026-05-08 19:35 | 45.05068 | 19.76700 | 7792 ft | 273 kts | 121° |
| 2026-05-08 19:35 | 45.04098 | 19.78983 | 7422 ft | 270 kts | 121° |
| 2026-05-08 19:36 | 45.03138 | 19.81247 | 7056 ft | 267 kts | 121° |
| 2026-05-08 19:36 | 45.02184 | 19.83497 | 6690 ft | 265 kts | 121° |
| 2026-05-08 19:36 | 45.01240 | 19.85725 | 6322 ft | 264 kts | 121° |
| 2026-05-08 19:36 | 45.00305 | 19.87928 | 5949 ft | 265 kts | 120° |
| 2026-05-08 19:37 | 44.99344 | 19.90194 | 5567 ft | 265 kts | 120° |
| 2026-05-08 19:37 | 44.98398 | 19.92423 | 5197 ft | 265 kts | 120° |
| 2026-05-08 19:37 | 44.97518 | 19.94648 | 4873 ft | 261 kts | 113° |
| 2026-05-08 19:37 | 44.96838 | 19.97023 | 4546 ft | 261 kts | 113° |
| 2026-05-08 19:38 | 44.95932 | 19.99267 | 4276 ft | 260 kts | 123° |
| 2026-05-08 19:38 | 44.95241 | 20.00638 | 4118 ft | 256 kts | 125° |
| 2026-05-08 19:38 | 44.94257 | 20.02694 | 3944 ft | 251 kts | 120° |
| 2026-05-08 19:38 | 44.93095 | 20.05502 | 3745 ft | 250 kts | 120° |
| 2026-05-08 19:39 | 44.92159 | 20.07585 | 3582 ft | 249 kts | 121° |
| 2026-05-08 19:39 | 44.91553 | 20.08944 | 3469 ft | 243 kts | 121° |
| 2026-05-08 19:39 | 44.90690 | 20.10934 | 3270 ft | 234 kts | 120° |
| 2026-05-08 19:39 | 44.89856 | 20.12877 | 2972 ft | 227 kts | 120° |
| 2026-05-08 19:40 | 44.89050 | 20.14680 | 2662 ft | 210 kts | 121° |
| 2026-05-08 19:40 | 44.88289 | 20.16358 | 2386 ft | 196 kts | 120° |
| 2026-05-08 19:40 | 44.87581 | 20.17954 | 2081 ft | 188 kts | 119° |
| 2026-05-08 19:40 | 44.86923 | 20.19476 | 1815 ft | 173 kts | 119° |
| 2026-05-08 19:41 | 44.86311 | 20.20858 | 1622 ft | 163 kts | 119° |
| 2026-05-08 19:41 | 44.85758 | 20.22121 | 1454 ft | 143 kts | 118° |
| 2026-05-08 19:41 | 44.85250 | 20.23281 | 1274 ft | 136 kts | 119° |
| 2026-05-08 19:41 | 44.84729 | 20.24451 | 1104 ft | 144 kts | 119° |
| 2026-05-08 19:42 | 44.84200 | 20.25644 | 932 ft | 145 kts | 121° |
| 2026-05-08 19:42 | 44.83664 | 20.26836 | 758 ft | 141 kts | 120° |
| 2026-05-08 19:42 | 44.83143 | 20.28004 | 564 ft | 140 kts | 120° |
| 2026-05-08 19:42 | 44.82624 | 20.29163 | 361 ft | 140 kts | 121° |
| 2026-05-08 19:43 | 44.82159 | 20.30210 | 323 ft | 101 kts | 123° |
| 2026-05-08 19:43 | 44.81847 | 20.30914 | 326 ft | 64 kts | 121° |
| 2026-05-08 19:43 | 44.81676 | 20.31248 | 324 ft | 28 kts | 140° |
| 2026-05-08 19:43 | 44.81573 | 20.31333 | 323 ft | 17 kts | 152° |
| 2026-05-08 19:44 | 44.81483 | 20.31399 | 324 ft | 16 kts | 152° |
| 2026-05-08 19:44 | 44.81389 | 20.31470 | 324 ft | 13 kts | 159° |
| 2026-05-08 19:44 | 44.81317 | 20.31425 | 323 ft | 10 kts | 252° |
| 2026-05-08 19:44 | 44.81345 | 20.31325 | 322 ft | 14 kts | 301° |
| 2026-05-08 19:45 | 44.81404 | 20.31194 | 323 ft | 18 kts | 302° |
| 2026-05-08 19:45 | 44.81474 | 20.31036 | 323 ft | 20 kts | 301° |
| 2026-05-08 19:45 | 44.81552 | 20.30860 | 324 ft | 22 kts | 302° |
| 2026-05-08 19:45 | 44.81637 | 20.30668 | 325 ft | 24 kts | 301° |
| 2026-05-08 19:46 | 44.81730 | 20.30459 | 326 ft | 26 kts | 302° |
| 2026-05-08 19:46 | 44.81816 | 20.30266 | 325 ft | 23 kts | 302° |
| 2026-05-08 19:46 | 44.81969 | 20.29920 | 324 ft | 20 kts | 302° |
| 2026-05-08 19:47 | 44.82037 | 20.29767 | 323 ft | 16 kts | 302° |
| 2026-05-08 19:47 | 44.82079 | 20.29650 | 325 ft | 10 kts | 264° |
| 2026-05-08 19:47 | 44.82023 | 20.29576 | 323 ft | 13 kts | 212° |
| 2026-05-08 19:47 | 44.81941 | 20.29505 | 322 ft | 15 kts | 212° |
| 2026-05-08 19:48 | 44.81843 | 20.29419 | 324 ft | 14 kts | 212° |
| 2026-05-08 19:48 | 44.81787 | 20.29371 | 323 ft | 6 kts | 204° |
| 2026-05-08 19:48 | 44.81758 | 20.29391 | 324 ft | 6 kts | 122° |
| 2026-05-08 19:48 | 44.81745 | 20.29421 | 324 ft | 4 kts | 122° |
| 2026-05-08 19:49 | 44.81743 | 20.29426 | 324 ft | 0 kts | 122° |